createdAt,value
2018-12-06T00:00:30.886Z,22.20
2018-12-06T00:03:20.552Z,26.67
2018-12-06T00:06:10.264Z,21.37
2018-12-06T00:08:59.584Z,20.93
2018-12-06T00:11:49.471Z,24.57
2018-12-06T00:14:38.712Z,25.33
2018-12-06T00:17:28.048Z,23.77
2018-12-06T00:20:17.424Z,26.53
2018-12-06T00:22:48.364Z,31.07
2018-12-06T00:25:37.739Z,27.60
2018-12-06T00:28:08.320Z,23.27
2018-12-06T00:30:57.589Z,29.73
2018-12-06T00:33:46.884Z,22.63
2018-12-06T00:36:36.522Z,25.10
2018-12-06T00:39:26.137Z,29.87
2018-12-06T00:42:15.432Z,23.60
2018-12-06T00:45:25.033Z,25.80
2018-12-06T00:47:55.556Z,20.13
2018-12-06T00:50:45.351Z,26.83
2018-12-06T00:53:35.048Z,24.13
2018-12-06T00:56:24.818Z,18.53
2018-12-06T00:59:14.468Z,25.57
2018-12-06T01:05:01.437Z,23.87
2018-12-06T01:07:50.812Z,20.53
2018-12-06T01:10:40.088Z,23.10
2018-12-06T01:13:29.348Z,21.20
2018-12-06T01:16:19.096Z,22.60
2018-12-06T01:19:08.455Z,22.70
2018-12-06T01:21:58.145Z,23.30
2018-12-06T01:24:47.432Z,21.77
2018-12-06T01:27:36.693Z,26.07
2018-12-06T01:30:26.182Z,26.77
2018-12-06T01:33:15.488Z,24.63
2018-12-06T01:36:05.252Z,28.70
2018-12-06T01:38:55.044Z,32.37
2018-12-06T01:42:03.692Z,25.57
2018-12-06T01:45:13.180Z,25.80
2018-12-06T01:48:02.819Z,28.53
2018-12-06T01:50:33.292Z,24.80
2018-12-06T01:53:22.596Z,27.77
2018-12-06T01:56:12.275Z,26.60
2018-12-06T01:59:01.835Z,24.40
2018-12-06T02:01:51.611Z,29.87
2018-12-06T02:04:40.920Z,25.63
2018-12-06T02:07:30.584Z,28.37
2018-12-06T02:10:19.847Z,28.53
2018-12-06T02:13:09.420Z,25.60
2018-12-06T02:15:59.060Z,29.60
2018-12-06T02:18:48.323Z,33.73
2018-12-06T02:21:37.993Z,31.50
2018-12-06T02:24:27.260Z,26.80
2018-12-06T02:27:16.504Z,32.17
2018-12-06T02:30:06.203Z,26.20
2018-12-06T02:32:37.055Z,27.90
2018-12-06T02:35:26.430Z,29.37
2018-12-06T02:38:15.688Z,25.70
2018-12-06T02:41:04.968Z,27.73
2018-12-06T02:43:53.762Z,26.00
2018-12-06T02:46:43.029Z,25.30
2018-12-06T02:49:32.308Z,26.13
2018-12-06T02:52:21.845Z,31.07
2018-12-06T02:55:11.052Z,29.10
2018-12-06T02:58:00.848Z,28.10
2018-12-06T03:00:50.155Z,27.93
2018-12-06T03:03:39.369Z,32.93
2018-12-06T03:06:29.014Z,30.37
2018-12-06T03:09:18.409Z,29.47
2018-12-06T03:12:07.997Z,27.50
2018-12-06T03:14:57.387Z,27.73
2018-12-06T03:17:46.723Z,29.10
2018-12-06T03:20:36.011Z,23.20
2018-12-06T03:26:53.941Z,26.13
2018-12-06T03:29:43.631Z,31.40
2018-12-06T03:32:33.344Z,27.17
2018-12-06T03:35:22.605Z,27.63
2018-12-06T03:38:12.594Z,23.73
2018-12-06T03:41:01.901Z,22.93
2018-12-06T03:43:51.278Z,23.07
2018-12-06T03:46:40.646Z,30.70
2018-12-06T03:49:30.672Z,29.03
2018-12-06T03:52:19.977Z,22.90
2018-12-06T03:55:09.396Z,21.67
2018-12-06T03:57:58.958Z,22.63
2018-12-06T04:00:48.315Z,30.43
2018-12-06T04:03:38.216Z,24.23
2018-12-06T04:06:28.062Z,24.70
2018-12-06T04:09:17.316Z,22.83
2018-12-06T04:12:07.065Z,26.63
2018-12-06T04:14:56.324Z,25.27
2018-12-06T04:17:46.143Z,29.23
2018-12-06T04:20:35.508Z,31.13
2018-12-06T04:26:33.367Z,26.17
2018-12-06T04:29:22.590Z,20.97
2018-12-06T04:32:11.862Z,23.23
2018-12-06T04:35:01.489Z,21.13
2018-12-06T04:37:50.822Z,23.57
2018-12-06T04:40:40.504Z,18.50
2018-12-06T04:43:30.065Z,26.90
2018-12-06T04:46:19.829Z,23.50
2018-12-06T04:49:09.153Z,25.20
2018-12-06T04:51:58.808Z,15.37
2018-12-06T04:54:48.620Z,15.30
2018-12-06T04:57:37.871Z,18.30
2018-12-06T05:00:27.154Z,18.23
2018-12-06T05:03:16.813Z,15.90
2018-12-06T05:06:06.200Z,21.87
2018-12-06T05:08:55.538Z,16.07
2018-12-06T05:11:45.137Z,18.20
2018-12-06T05:14:16.310Z,20.73
2018-12-06T05:17:06.025Z,17.77
2018-12-06T05:19:55.293Z,16.57
2018-12-06T05:22:45.078Z,14.73
2018-12-06T05:25:34.756Z,17.97
2018-12-06T05:28:24.494Z,16.57
2018-12-06T05:31:14.115Z,19.47
2018-12-06T05:34:03.795Z,16.23
2018-12-06T05:36:53.427Z,15.90
2018-12-06T05:39:42.724Z,20.73
2018-12-06T05:42:31.972Z,18.77
2018-12-06T05:45:22.011Z,20.33
2018-12-06T05:48:11.329Z,24.10
2018-12-06T05:51:00.661Z,20.17
2018-12-06T05:53:50.337Z,22.27
2018-12-06T05:56:40.056Z,21.40
2018-12-06T05:59:29.774Z,19.47
2018-12-06T06:02:19.428Z,16.17
2018-12-06T06:05:08.826Z,17.37
2018-12-06T06:07:58.446Z,20.03
2018-12-06T06:10:47.724Z,14.80
2018-12-06T06:13:37.009Z,13.20
2018-12-06T06:16:26.558Z,15.60
2018-12-06T06:19:15.802Z,20.70
2018-12-06T06:22:05.124Z,13.43
2018-12-06T06:24:54.368Z,20.67
2018-12-06T06:27:26.300Z,31.13
2018-12-06T06:30:16.376Z,82.73
2018-12-06T06:33:08.818Z,47.73
2018-12-06T06:38:33.996Z,31.23
2018-12-06T06:41:23.265Z,28.13
2018-12-06T06:44:12.544Z,29.37
2018-12-06T06:47:02.286Z,21.63
2018-12-06T06:49:52.034Z,17.70
2018-12-06T06:52:41.775Z,15.20
2018-12-06T06:55:31.518Z,16.73
2018-12-06T06:58:20.938Z,19.37
2018-12-06T07:01:11.216Z,16.73
2018-12-06T07:04:00.843Z,17.40
2018-12-06T07:06:50.658Z,19.23
2018-12-06T07:09:40.984Z,15.93
2018-12-06T07:12:31.063Z,19.33
2018-12-06T07:15:21.017Z,14.03
2018-12-06T07:18:10.402Z,18.60
2018-12-06T07:21:00.112Z,16.87
2018-12-06T07:23:49.536Z,18.00
2018-12-06T07:26:39.812Z,25.90
2018-12-06T07:29:29.308Z,24.20
2018-12-06T07:32:18.801Z,20.37
2018-12-06T07:35:08.738Z,19.00
2018-12-06T07:37:58.720Z,16.97
2018-12-06T07:40:29.672Z,19.47
2018-12-06T07:43:20.573Z,15.17
2018-12-06T07:46:11.849Z,18.33
2018-12-06T07:49:01.257Z,13.20
2018-12-06T07:51:51.394Z,20.40
2018-12-06T07:54:41.525Z,11.77
2018-12-06T07:57:12.548Z,14.27
2018-12-06T08:00:02.443Z,20.17
2018-12-06T08:02:53.710Z,16.23
2018-12-06T08:05:44.445Z,14.07
2018-12-06T08:08:34.342Z,10.30
2018-12-06T08:11:24.639Z,13.63
2018-12-06T08:13:56.133Z,13.17
2018-12-06T08:17:12.887Z,13.93
2018-12-06T08:19:39.950Z,10.27
2018-12-06T08:22:29.841Z,13.70
2018-12-06T08:25:19.972Z,8.80
2018-12-06T08:28:10.169Z,9.10
2018-12-06T08:31:00.773Z,8.10
2018-12-06T08:33:50.855Z,7.40
2018-12-06T08:36:40.811Z,9.43
2018-12-06T08:39:30.702Z,8.27
2018-12-06T08:42:20.072Z,7.40
2018-12-06T08:45:09.669Z,10.10
2018-12-06T08:47:59.617Z,9.90
2018-12-06T08:50:49.178Z,11.10
2018-12-06T08:53:39.727Z,7.90
2018-12-06T08:56:29.624Z,11.30
2018-12-06T08:59:19.545Z,9.13
2018-12-06T09:02:09.588Z,6.03
2018-12-06T09:04:59.722Z,8.47
2018-12-06T09:07:49.650Z,5.67
2018-12-06T09:10:40.664Z,7.40
2018-12-06T09:13:30.917Z,7.10
2018-12-06T09:16:20.493Z,7.80
2018-12-06T09:19:10.033Z,11.27
2018-12-06T09:22:00.003Z,7.20
2018-12-06T09:24:49.640Z,9.43
2018-12-06T09:27:39.238Z,9.30
2018-12-06T09:30:28.729Z,5.40
2018-12-06T09:33:18.264Z,7.53
2018-12-06T09:36:07.964Z,6.57
2018-12-06T09:38:58.292Z,6.43
2018-12-06T09:41:47.674Z,7.37
2018-12-06T09:44:37.225Z,7.73
2018-12-06T09:50:27.489Z,6.40
2018-12-06T09:53:17.253Z,5.20
2018-12-06T09:56:06.881Z,8.53
2018-12-06T09:58:56.860Z,11.00
2018-12-06T10:01:46.616Z,6.23
2018-12-06T10:07:46.821Z,7.50
2018-12-06T10:10:36.628Z,6.87
2018-12-06T10:13:27.630Z,10.00
2018-12-06T10:16:17.491Z,7.00
2018-12-06T10:19:07.406Z,7.67
2018-12-06T10:21:59.469Z,7.07
2018-12-06T10:24:49.376Z,5.20
2018-12-06T10:27:39.167Z,5.40
2018-12-06T10:30:28.783Z,9.30
2018-12-06T10:33:10.648Z,6.20
2018-12-06T10:35:52.346Z,8.60
2018-12-06T10:38:35.145Z,6.80
2018-12-06T10:41:16.552Z,13.03
2018-12-06T10:43:58.617Z,6.80
2018-12-06T10:46:41.099Z,5.37
2018-12-06T10:49:22.987Z,8.73
2018-12-06T10:52:04.596Z,6.80
2018-12-06T10:54:46.180Z,7.23
2018-12-06T10:57:28.559Z,8.80
2018-12-06T11:00:28.829Z,7.27
2018-12-06T11:06:20.265Z,9.33
2018-12-06T11:09:03.578Z,9.33
2018-12-06T11:11:45.479Z,7.80
2018-12-06T11:14:27.571Z,8.60
2018-12-06T11:17:10.749Z,9.10
2018-12-06T11:19:53.931Z,7.33
2018-12-06T11:22:36.586Z,9.47
2018-12-06T11:25:20.671Z,9.53
2018-12-06T11:28:04.061Z,10.23
2018-12-06T11:30:46.538Z,7.70
2018-12-06T11:33:40.139Z,11.03
2018-12-06T11:39:10.818Z,7.20
2018-12-06T11:42:09.282Z,8.03
2018-12-06T11:47:53.894Z,7.63
2018-12-06T11:51:27.733Z,6.63
2018-12-06T11:53:35.860Z,6.50
2018-12-06T11:56:25.882Z,8.13
2018-12-06T11:59:15.901Z,9.13
2018-12-06T12:02:09.912Z,7.87
2018-12-06T12:08:09.331Z,8.93
2018-12-06T12:11:24.903Z,7.17
2018-12-06T12:13:53.243Z,6.80
2018-12-06T12:16:43.341Z,5.83
2018-12-06T12:19:14.552Z,6.00
2018-12-06T12:21:45.910Z,7.40
2018-12-06T12:24:35.462Z,6.50
2018-12-06T12:30:20.975Z,5.97
2018-12-06T12:33:10.676Z,6.53
2018-12-06T12:36:00.266Z,4.90
2018-12-06T12:38:49.808Z,5.90
2018-12-06T12:41:39.659Z,5.70
2018-12-06T12:44:55.446Z,4.63
2018-12-06T12:47:23.256Z,4.40
2018-12-06T12:50:13.192Z,5.50
2018-12-06T12:56:00.445Z,6.43
2018-12-06T12:58:50.404Z,2.70
2018-12-06T13:02:00.378Z,4.47
2018-12-06T13:04:49.989Z,3.20
2018-12-06T13:07:39.546Z,5.33
2018-12-06T13:10:29.631Z,3.60
2018-12-06T13:13:19.240Z,5.10
2018-12-06T13:16:09.116Z,4.00
2018-12-06T13:18:58.735Z,3.37
2018-12-06T13:21:50.875Z,3.20
2018-12-06T13:24:41.225Z,3.97
2018-12-06T13:27:31.269Z,2.87
2018-12-06T13:30:20.908Z,2.90
2018-12-06T13:33:10.593Z,4.67
2018-12-06T13:36:00.043Z,4.13
2018-12-06T13:38:49.676Z,3.03
2018-12-06T13:41:41.508Z,2.30
2018-12-06T13:44:31.586Z,2.43
2018-12-06T13:47:21.785Z,1.70
2018-12-06T13:50:11.265Z,3.07
2018-12-06T13:53:00.862Z,3.00
2018-12-06T13:55:51.249Z,6.43
2018-12-06T13:58:41.697Z,5.43
2018-12-06T14:04:39.028Z,2.60
2018-12-06T14:07:29.207Z,2.07
2018-12-06T14:10:19.541Z,1.93
2018-12-06T14:13:09.892Z,4.70
2018-12-06T14:15:41.740Z,2.90
2018-12-06T14:18:31.792Z,1.87
2018-12-06T14:21:20.897Z,2.23
2018-12-06T14:24:09.527Z,3.63
2018-12-06T14:26:59.163Z,3.00
2018-12-06T14:29:49.118Z,2.70
2018-12-06T14:32:39.163Z,5.23
2018-12-06T14:35:28.911Z,2.20
2018-12-06T14:38:19.417Z,2.10
2018-12-06T14:41:08.977Z,3.83
2018-12-06T14:43:59.136Z,5.83
2018-12-06T14:46:49.151Z,3.40
2018-12-06T14:52:49.698Z,5.20
2018-12-06T14:55:39.649Z,4.03
2018-12-06T14:58:30.069Z,4.70
2018-12-06T15:01:20.621Z,5.33
2018-12-06T15:04:10.569Z,5.37
2018-12-06T15:07:19.732Z,3.50
2018-12-06T15:09:55.800Z,2.87
2018-12-06T15:12:45.360Z,2.30
2018-12-06T15:15:34.898Z,4.87
2018-12-06T15:18:24.651Z,5.77
2018-12-06T15:21:13.960Z,2.37
2018-12-06T15:24:03.715Z,3.07
2018-12-06T15:26:53.900Z,5.03
2018-12-06T15:29:44.198Z,3.27
2018-12-06T15:32:34.181Z,4.40
2018-12-06T15:35:31.555Z,5.17
2018-12-06T15:38:21.449Z,2.20
2018-12-06T15:44:22.061Z,2.50
2018-12-06T15:47:12.242Z,2.70
2018-12-06T15:52:59.388Z,3.20
2018-12-06T15:55:49.559Z,1.93
2018-12-06T15:58:39.282Z,3.80
2018-12-06T16:01:29.096Z,2.50
2018-12-06T16:04:18.841Z,3.00
2018-12-06T16:07:09.471Z,2.90
2018-12-06T16:09:59.504Z,4.30
2018-12-06T16:12:49.453Z,3.83
2018-12-06T16:16:00.890Z,46.27
2018-12-06T16:18:31.600Z,6.37
2018-12-06T16:21:21.372Z,5.00
2018-12-06T16:24:11.173Z,6.03
2018-12-06T16:27:00.819Z,4.20
2018-12-06T16:29:51.611Z,5.20
2018-12-06T16:32:42.953Z,2.80
2018-12-06T16:35:32.609Z,3.80
2018-12-06T16:38:22.245Z,2.70
2018-12-06T16:41:11.700Z,3.63
2018-12-06T16:44:01.242Z,5.37
2018-12-06T16:46:51.538Z,3.10
2018-12-06T16:49:42.466Z,3.10
2018-12-06T16:55:46.685Z,3.63
2018-12-06T16:58:35.893Z,3.27
2018-12-06T17:01:25.832Z,4.90
2018-12-06T17:04:15.487Z,2.47
2018-12-06T17:07:05.515Z,3.23
2018-12-06T17:09:55.134Z,5.63
2018-12-06T17:12:26.304Z,3.60
2018-12-06T17:15:16.084Z,5.13
2018-12-06T17:18:05.995Z,4.03
2018-12-06T17:20:56.144Z,3.07
2018-12-06T17:23:45.950Z,4.43
2018-12-06T17:26:35.707Z,2.63
2018-12-06T17:29:25.061Z,4.63
2018-12-06T17:32:15.002Z,2.93
2018-12-06T17:35:04.973Z,7.00
2018-12-06T17:40:49.777Z,3.20
2018-12-06T17:43:39.508Z,3.77
2018-12-06T17:46:29.149Z,3.40
2018-12-06T17:49:18.396Z,4.20
2018-12-06T17:52:08.349Z,3.00
2018-12-06T17:54:58.369Z,11.83
2018-12-06T17:57:48.841Z,4.30
2018-12-06T18:00:38.302Z,4.50
2018-12-06T18:03:30.991Z,5.87
2018-12-06T18:06:20.956Z,3.07
2018-12-06T18:09:10.892Z,3.77
2018-12-06T18:11:41.990Z,3.40
2018-12-06T18:14:31.834Z,3.00
2018-12-06T18:17:22.329Z,4.73
2018-12-06T18:20:12.435Z,3.80
2018-12-06T18:23:02.852Z,4.23
2018-12-06T18:25:52.894Z,3.10
2018-12-06T18:28:42.240Z,5.70
2018-12-06T18:31:31.945Z,3.07
2018-12-06T18:34:24.963Z,3.37
2018-12-06T18:37:15.264Z,3.97
2018-12-06T18:40:05.616Z,3.43
2018-12-06T18:42:55.492Z,5.13
2018-12-06T18:45:45.969Z,5.67
2018-12-06T18:48:35.500Z,3.83
2018-12-06T18:51:25.312Z,5.07
2018-12-06T18:54:15.029Z,3.40
2018-12-06T18:57:04.720Z,3.73
2018-12-06T18:59:54.426Z,3.80
2018-12-06T19:03:04.520Z,4.30
2018-12-06T19:11:40.197Z,5.57
2018-12-06T19:14:29.734Z,4.27
2018-12-06T19:17:19.700Z,5.90
2018-12-06T19:20:09.287Z,4.87
2018-12-06T19:22:58.896Z,4.30
2018-12-06T19:25:49.178Z,3.30
2018-12-06T19:28:38.890Z,5.90
2018-12-06T19:31:28.896Z,4.03
2018-12-06T19:34:18.680Z,3.77
2018-12-06T19:37:08.874Z,4.30
2018-12-06T19:40:00.869Z,4.10
2018-12-06T19:42:51.092Z,4.00
2018-12-06T19:45:41.038Z,3.70
2018-12-06T19:48:30.500Z,4.17
2018-12-06T19:51:20.405Z,4.10
2018-12-06T19:54:10.428Z,4.10
2018-12-06T20:00:28.689Z,7.57
2018-12-06T20:03:18.763Z,7.80
2018-12-06T20:06:08.244Z,4.97
2018-12-06T20:08:57.788Z,6.50
2018-12-06T20:11:47.792Z,7.60
2018-12-06T20:14:37.268Z,8.97
2018-12-06T20:17:26.985Z,8.70
2018-12-06T20:20:23.376Z,6.93
2018-12-06T20:23:08.545Z,6.40
2018-12-06T20:25:58.533Z,6.67
2018-12-06T20:28:47.920Z,6.47
2018-12-06T20:31:37.925Z,4.20
2018-12-06T20:34:27.529Z,3.60
2018-12-06T20:37:17.538Z,4.63
2018-12-06T20:40:07.651Z,3.27
2018-12-06T20:42:57.241Z,3.90
2018-12-06T20:45:47.188Z,3.43
2018-12-06T20:48:37.182Z,3.57
2018-12-06T20:51:27.207Z,3.63
2018-12-06T20:54:16.752Z,3.07
2018-12-06T20:57:06.645Z,2.40
2018-12-06T20:59:56.276Z,3.20
2018-12-06T21:02:45.809Z,3.57
2018-12-06T21:05:35.954Z,2.50
2018-12-06T21:08:25.650Z,2.57
2018-12-06T21:11:15.329Z,2.93
2018-12-06T21:14:05.645Z,2.37
2018-12-06T21:16:55.031Z,3.13
2018-12-06T21:19:44.670Z,2.07
2018-12-06T21:22:15.417Z,1.90
2018-12-06T21:25:04.773Z,2.63
2018-12-06T21:27:54.389Z,2.67
2018-12-06T21:30:44.288Z,2.33
2018-12-06T21:33:33.977Z,2.27
2018-12-06T21:36:23.304Z,2.67
2018-12-06T21:39:15.471Z,1.60
2018-12-06T21:42:05.533Z,2.20
2018-12-06T21:44:55.256Z,1.50
2018-12-06T21:47:45.300Z,5.33
2018-12-06T21:50:35.390Z,2.33
2018-12-06T21:53:45.153Z,1.83
2018-12-06T21:56:50.371Z,2.43
2018-12-06T21:59:26.365Z,2.47
2018-12-06T22:02:34.880Z,1.77
2018-12-06T22:11:32.026Z,1.63
2018-12-06T22:14:21.311Z,1.57
2018-12-06T22:17:10.570Z,1.77
2018-12-06T22:20:00.300Z,2.90
2018-12-06T22:22:42.087Z,1.93
2018-12-06T22:25:24.519Z,1.90
2018-12-06T22:27:55.401Z,1.87
2018-12-06T22:30:44.715Z,1.40
2018-12-06T22:33:33.977Z,1.40
2018-12-06T22:36:23.639Z,1.40
2018-12-06T22:39:12.880Z,1.73
2018-12-06T22:42:02.152Z,1.60
2018-12-06T22:48:06.649Z,1.63
2018-12-06T22:50:55.903Z,1.67
2018-12-06T22:53:45.212Z,1.40
2018-12-06T22:56:34.889Z,2.73
2018-12-06T22:59:24.685Z,3.03
2018-12-06T23:02:14.331Z,1.60
2018-12-06T23:05:03.620Z,1.30
2018-12-06T23:07:53.321Z,1.57
2018-12-06T23:10:42.615Z,1.73
2018-12-06T23:13:31.855Z,1.60
2018-12-06T23:16:21.631Z,2.57
2018-12-06T23:19:17.943Z,1.47
2018-12-06T23:22:07.212Z,1.30
2018-12-06T23:24:56.868Z,1.70
2018-12-06T23:27:46.565Z,1.50
2018-12-06T23:30:35.844Z,1.73
2018-12-06T23:33:31.806Z,1.50
2018-12-06T23:38:45.104Z,1.37
2018-12-06T23:41:34.411Z,1.80
2018-12-06T23:44:23.665Z,4.70
2018-12-06T23:47:13.382Z,3.57
2018-12-06T23:50:02.702Z,1.60
2018-12-06T23:52:51.912Z,1.50
2018-12-06T23:55:41.198Z,1.37
2018-12-06T23:58:30.453Z,1.50
